Meldrum Bay, Ontario

3:29 AM EDT on August 28, 2014 (GMT -0400)
| Change Station
CLOSE
Current Station
Personal Weather Station
Location: ,
Elevation: -9999 ft
Nearby Weather Stations

Elev -9999 ft 0.00 °N, 0.00 °E | Updated

Clear
Clear
55 °F
Feels Like 55 °F
N
14
Wind Variable Wind from NW
Gusts mph

Today is forecast to be nearly the same temperature as yesterday.

Today
High -- | Low -- °F
--% Chance of Precip.
Yesterday
High -- | Low -- °F
Precip. -- in
6:48 AM 8:18 PM
Waxing Crescent, 7% visible
Pressure 30.14 in
Visibility 9.0 miles
Clouds Scattered Clouds 6000 ft
Dew Point 51 °F
Humidity 81%
Rainfall -9999.00 in
Snow Depth Not available.
UV 0 out of 12
Pollen Not available.
Air Quality Not available.
Flu Activity Not available.
METAR CYZE 280700Z AUTO 32006KT 9SM SCT060 12/10 A3013 RMK SLP204

More Conditions Fewer Conditions

Pressure 30.14 in
Visibility 9.0 miles
Clouds Scattered Clouds 6000 ft
Dew Point 51 °F
Humidity 81%
Rainfall -9999.00 in
Snow Depth Not available.
UV 0 out of 12
Pollen Not available.
Air Quality Not available.
Flu Activity Not available.
METAR CYZE 280700Z AUTO 32006KT 9SM SCT060 12/10 A3013 RMK SLP204

More Conditions Fewer Conditions

10-Day Weather Forecast

Almanac

Astronomy

Aug. 28, 2014 Rise Set
Actual Time 6:48 AM EDT 8:18 PM EDT
Civil Twilight 6:17 AM EDT 8:49 PM EDT
Nautical Twilight 5:39 AM EDT 9:27 PM EDT
Astronomical Twilight 4:58 AM EDT 10:07 PM EDT
Moon 9:51 AM EDT 9:29 PM EDT
Length of Visible Light 14h 32m
Length of Day
13h 29m
Tomorrow will be 3m 5s shorter.
Waxing Crescent, 7% of the Moon is Illuminated
Today
Waxing Crescent
Sep 2
First Quarter
Sep 8
Full
Sep 15
Last Quarter
Sep 24
New

Yesterday's Extremes

Country Highs Country Lows

Community

WunderPhotos

Upload Photos

1,747,912 photos uploaded!

Nearby

Snow Depth

Not available.

Earthquake Activity

City Distance Mag. Time & Date
No recent earthquake activity has been reported nearby.
Minimum magnitude displayed is 2.5.

Coastal Water Temperatures

Place Temperature
No Stations Reporting

Nearby Weather Stations